Time;durP1;ratioP1;P1;durP2;ratioP2;P2;SDS_P1;SDS_P2;PMS_P1;PMS_P2;Temp;Humidity;BMP_temperature;BMP_pressure;BME280_temperature;BME280_humidity;BME280_pressure;Samples;Min_cycle;Max_cycle;Signal;HPM_P1;HPM_P2
2023/08/01 00:01:19;;;;;;;6.80;4.70;;;;;;;15.25;100.00;96965.19;110108;1241;71592;-68
2023/08/01 00:03:50;;;;;;;8.30;5.70;;;;;;;15.23;100.00;96963.98;110125;1245;69047;-68
2023/08/01 00:06:22;;;;;;;7.90;4.90;;;;;;;15.22;100.00;96962.04;110129;1243;69198;-68
2023/08/01 00:08:53;;;;;;;7.90;5.70;;;;;;;15.21;100.00;96957.70;110139;1245;60076;-68
2023/08/01 00:11:23;;;;;;;9.50;5.70;;;;;;;15.20;100.00;96952.92;110089;1241;59736;-69
2023/08/01 00:13:53;;;;;;;7.10;5.10;;;;;;;15.18;100.00;96952.06;110150;1244;70888;-68
2023/08/01 00:16:24;;;;;;;5.70;4.90;;;;;;;15.16;100.00;96949.09;110122;1245;69177;-68
2023/08/01 00:18:54;;;;;;;6.20;4.40;;;;;;;15.15;100.00;96952.71;110131;1244;69344;-68
2023/08/01 00:21:25;;;;;;;6.20;4.90;;;;;;;15.13;100.00;96945.67;110093;1242;59754;-69
2023/08/01 00:23:56;;;;;;;7.80;5.40;;;;;;;15.11;100.00;96946.20;110116;1241;59674;-69
2023/08/01 00:26:25;;;;;;;9.90;5.40;;;;;;;15.10;100.00;96940.92;109553;1241;686892;-68
2023/08/01 00:28:55;;;;;;;8.20;5.30;;;;;;;15.07;100.00;96935.02;110129;1246;68444;-70
2023/08/01 00:31:25;;;;;;;7.10;4.70;;;;;;;15.06;100.00;96931.11;110109;1244;68328;-69
2023/08/01 00:33:55;;;;;;;;;;;;;;;15.06;100.00;96932.04;110054;1245;59650;-69
2023/08/01 00:36:26;;;;;;;6.50;4.70;;;;;;;15.04;100.00;96933.41;110185;1243;59813;-69
2023/08/01 00:38:58;;;;;;;6.60;4.10;;;;;;;15.02;100.00;96931.30;110165;1243;71684;-69
2023/08/01 00:41:28;;;;;;;7.70;5.40;;;;;;;15.02;100.00;96936.08;110144;1244;69809;-68
2023/08/01 00:43:57;;;;;;;6.10;5.00;;;;;;;15.02;100.00;96932.88;110162;1245;68475;-69
2023/08/01 00:46:28;;;;;;;6.50;5.00;;;;;;;15.01;100.00;96931.73;110130;1245;59737;-69
2023/08/01 00:48:58;;;;;;;7.60;4.90;;;;;;;15.00;100.00;96927.32;110148;1245;59650;-68
2023/08/01 00:51:32;;;;;;;7.60;5.30;;;;;;;14.99;100.00;96925.44;110138;1241;70644;-69
2023/08/01 00:54:04;;;;;;;5.50;4.50;;;;;;;14.97;100.00;96927.94;110119;1245;69321;-70
2023/08/01 00:56:39;;;;;;;6.00;4.90;;;;;;;14.94;100.00;96929.48;110151;1244;69778;-68
2023/08/01 00:59:12;;;;;;;7.90;5.20;;;;;;;14.93;100.00;96930.64;110133;1241;59708;-69
2023/08/01 01:01:43;;;;;;;6.90;4.80;;;;;;;14.91;100.00;96928.35;110170;1243;59752;-69
2023/08/01 01:04:12;;;;;;;7.40;5.00;;;;;;;14.89;100.00;96926.14;110148;1244;71925;-69
2023/08/01 01:07:00;;;;;;;6.10;4.40;;;;;;;14.86;100.00;96925.90;110138;1242;68860;-68
2023/08/01 01:09:31;;;;;;;39.10;6.80;;;;;;;14.82;100.00;96924.05;110147;1243;68209;-68
2023/08/01 01:12:05;;;;;;;8.60;4.90;;;;;;;14.75;100.00;96920.67;110121;1245;59681;-69
2023/08/01 01:14:38;;;;;;;6.50;4.60;;;;;;;14.66;100.00;96912.05;110127;1245;59712;-68
2023/08/01 01:17:09;;;;;;;6.20;4.50;;;;;;;14.61;100.00;96908.71;110131;1242;71417;-68
2023/08/01 01:19:40;;;;;;;6.20;4.30;;;;;;;14.57;100.00;96905.92;110113;1245;69935;-70
2023/08/01 01:22:14;;;;;;;6.80;5.00;;;;;;;14.53;100.00;96908.92;110138;1244;68601;-68
2023/08/01 01:24:49;;;;;;;5.90;4.00;;;;;;;14.48;100.00;96910.06;110049;1245;59750;-68
2023/08/01 01:27:22;;;;;;;5.70;4.10;;;;;;;14.44;100.00;96898.32;110090;1244;59699;-67
2023/08/01 01:29:56;;;;;;;7.70;3.90;;;;;;;14.43;100.00;96893.06;110107;1242;71461;-69
2023/08/01 01:32:28;;;;;;;5.10;4.10;;;;;;;14.44;100.00;96893.98;110080;1245;67509;-68
2023/08/01 01:35:01;;;;;;;6.00;4.00;;;;;;;14.45;100.00;96891.81;110044;1245;69126;-66
2023/08/01 01:37:32;;;;;;;4.70;4.20;;;;;;;14.45;100.00;96888.98;110075;1245;59750;-69
2023/08/01 01:40:10;;;;;;;5.90;4.60;;;;;;;14.44;100.00;96884.48;109770;1244;59737;-69
2023/08/01 01:42:42;;;;;;;14.20;4.50;;;;;;;14.43;100.00;96879.35;109692;1244;70438;-69
2023/08/01 01:45:13;;;;;;;8.10;3.60;;;;;;;14.42;100.00;96876.45;110105;1244;68624;-69
2023/08/01 01:47:45;;;;;;;10.40;4.40;;;;;;;14.42;100.00;96870.49;110059;1245;68564;-70
2023/08/01 01:50:17;;;;;;;13.10;4.30;;;;;;;14.42;100.00;96868.08;110056;1244;59747;-69
2023/08/01 01:52:50;;;;;;;10.50;4.10;;;;;;;14.42;100.00;96866.86;110077;1245;59687;-69
2023/08/01 01:55:23;;;;;;;7.20;3.90;;;;;;;14.40;100.00;96862.48;110117;1245;71467;-69
2023/08/01 01:57:55;;;;;;;5.80;3.60;;;;;;;14.38;100.00;96860.05;109811;1246;68343;-69
2023/08/01 02:00:25;;;;;;;;;;;;;;;14.36;100.00;96861.31;109878;1250;69728;-69
2023/08/01 02:02:56;;;;;;;8.70;4.10;;;;;;;14.35;100.00;96871.03;110063;1245;59718;-69
2023/08/01 02:05:25;;;;;;;;;;;;;;;14.34;100.00;96878.85;110124;1244;59747;-68
2023/08/01 02:07:56;;;;;;;;;;;;;;;14.29;100.00;96880.87;110107;1242;71404;-69
2023/08/01 02:10:29;;;;;;;8.10;4.60;;;;;;;14.26;100.00;96878.00;110122;1244;69089;-69
2023/08/01 02:12:59;;;;;;;6.30;4.40;;;;;;;14.25;100.00;96873.20;110071;1245;68447;-69
2023/08/01 02:15:30;;;;;;;5.00;3.90;;;;;;;14.25;100.00;96874.61;109902;1248;59660;-69
2023/08/01 02:18:02;;;;;;;5.10;3.90;;;;;;;14.26;100.00;96877.12;110090;1244;59653;-69
2023/08/01 02:20:33;;;;;;;8.10;5.50;;;;;;;14.30;100.00;96886.63;110115;1244;71397;-69
2023/08/01 02:23:02;;;;;;;35.60;5.40;;;;;;;14.29;100.00;96887.73;110104;1245;69288;-68
2023/08/01 02:25:33;;;;;;;8.20;4.70;;;;;;;14.27;100.00;96885.58;110091;1245;69299;-69
2023/08/01 02:28:06;;;;;;;7.20;4.40;;;;;;;14.25;100.00;96885.13;110123;1241;59715;-69
2023/08/01 02:30:38;;;;;;;5.80;4.50;;;;;;;14.21;100.00;96885.67;110119;1245;59684;-69
2023/08/01 02:33:11;;;;;;;7.60;4.70;;;;;;;14.16;100.00;96883.54;110172;1245;71421;-69
2023/08/01 02:35:43;;;;;;;6.20;3.60;;;;;;;14.11;100.00;96879.59;110147;1242;68865;-69
2023/08/01 02:38:17;;;;;;;5.30;3.60;;;;;;;14.07;100.00;96882.88;110132;1244;68344;-69
2023/08/01 02:40:48;;;;;;;5.20;3.60;;;;;;;14.04;100.00;96878.06;110115;1245;59722;-69
2023/08/01 02:43:21;;;;;;;5.00;3.70;;;;;;;14.01;100.00;96879.02;110115;1245;59679;-69
2023/08/01 02:45:52;;;;;;;5.00;3.70;;;;;;;13.98;100.00;96876.46;110122;1246;70818;-69
2023/08/01 02:48:24;;;;;;;4.60;3.60;;;;;;;13.96;100.00;96876.90;110131;1246;67951;-69
2023/08/01 02:50:56;;;;;;;4.90;3.60;;;;;;;13.93;100.00;96876.96;110132;1245;68700;-70
2023/08/01 02:53:26;;;;;;;5.80;4.00;;;;;;;13.91;100.00;96878.70;110138;1245;59725;-68
2023/08/01 02:55:58;;;;;;;6.10;4.20;;;;;;;13.90;100.00;96877.47;110122;1246;59741;-69
2023/08/01 02:58:29;;;;;;;5.20;3.80;;;;;;;13.89;100.00;96880.71;110128;1245;70701;-69
2023/08/01 03:01:01;;;;;;;5.70;4.40;;;;;;;13.90;100.00;96881.96;110150;1245;69266;-69
2023/08/01 03:03:32;;;;;;;4.80;3.70;;;;;;;13.92;100.00;96880.55;110086;1245;68625;-68
2023/08/01 03:06:03;;;;;;;4.60;3.40;;;;;;;13.94;100.00;96879.66;110109;1244;59696;-68
2023/08/01 03:08:34;;;;;;;4.90;3.60;;;;;;;13.96;100.00;96879.46;110150;1244;59682;-68
2023/08/01 03:11:05;;;;;;;4.70;3.30;;;;;;;13.97;100.00;96889.33;110145;1243;71998;-69
2023/08/01 03:13:35;;;;;;;4.60;4.10;;;;;;;14.00;100.00;96887.02;110182;1244;69859;-67
2023/08/01 03:16:05;;;;;;;5.80;3.90;;;;;;;14.06;100.00;96889.38;110104;1245;70266;-68
2023/08/01 03:18:35;;;;;;;;;;;;;;;14.09;100.00;96892.40;110179;1241;59717;-68
2023/08/01 03:21:04;;;;;;;6.60;4.50;;;;;;;14.13;100.00;96888.92;110135;1244;59602;-69
2023/08/01 03:23:36;;;;;;;3.90;3.20;;;;;;;14.12;100.00;96884.75;110046;1245;71537;-68
2023/08/01 03:26:06;;;;;;;4.70;3.60;;;;;;;14.15;100.00;96890.80;110116;1244;69055;-68
2023/08/01 03:28:36;;;;;;;3.90;3.00;;;;;;;14.17;100.00;96890.61;110103;1244;69330;-68
2023/08/01 03:31:07;;;;;;;4.20;3.40;;;;;;;14.19;100.00;96893.42;110104;1245;59686;-68
2023/08/01 03:33:36;;;;;;;4.60;3.60;;;;;;;14.20;100.00;96894.67;110140;1245;59779;-69
2023/08/01 03:36:07;;;;;;;5.60;4.30;;;;;;;14.23;100.00;96897.73;110130;1245;71420;-68
2023/08/01 03:38:38;;;;;;;4.60;3.60;;;;;;;14.27;100.00;96901.02;110122;1245;69376;-69
2023/08/01 03:41:08;;;;;;;5.90;4.60;;;;;;;14.32;100.00;96905.02;110147;1243;70144;-69
2023/08/01 03:43:37;;;;;;;4.60;3.80;;;;;;;14.39;100.00;96907.45;110089;1245;59696;-68
2023/08/01 03:46:07;;;;;;;6.00;5.10;;;;;;;14.44;100.00;96905.41;110107;1245;59681;-69
2023/08/01 03:48:37;;;;;;;4.40;3.50;;;;;;;14.46;100.00;96911.10;110121;1245;72012;-68
2023/08/01 03:51:07;;;;;;;6.20;4.10;;;;;;;14.48;100.00;96910.09;110100;1245;69290;-68
2023/08/01 03:53:37;;;;;;;6.50;4.40;;;;;;;14.48;100.00;96907.27;110107;1246;68374;-68
2023/08/01 03:56:06;;;;;;;;;;;;;;;14.48;100.00;96903.79;110091;1244;59715;-68
2023/08/01 03:58:36;;;;;;;5.50;3.70;;;;;;;14.48;100.00;96907.45;110073;1243;59726;-68
2023/08/01 04:01:08;;;;;;;5.70;3.90;;;;;;;14.53;100.00;96910.02;110160;1244;71542;-68
2023/08/01 04:03:38;;;;;;;6.30;3.90;;;;;;;14.54;100.00;96912.02;110099;1244;68491;-68
2023/08/01 04:06:08;;;;;;;4.50;3.20;;;;;;;14.58;100.00;96912.98;110107;1245;69469;-68
2023/08/01 04:08:37;;;;;;;;;;;;;;;14.64;100.00;96910.14;110116;1245;60094;-68
2023/08/01 04:11:07;;;;;;;6.30;3.80;;;;;;;14.71;100.00;96907.80;110124;1242;59686;-68
2023/08/01 04:13:37;;;;;;;6.00;3.70;;;;;;;14.84;100.00;96916.05;110145;1243;72045;-69
2023/08/01 04:16:07;;;;;;;5.50;3.40;;;;;;;14.94;100.00;96916.11;110148;1245;69108;-69
2023/08/01 04:18:37;;;;;;;4.30;3.50;;;;;;;15.04;100.00;96914.52;110138;1245;69489;-68
2023/08/01 04:21:08;;;;;;;3.80;2.60;;;;;;;15.18;100.00;96919.58;110153;1245;59752;-68
2023/08/01 04:23:38;;;;;;;3.70;3.10;;;;;;;15.39;100.00;96926.09;110173;1241;59697;-68
2023/08/01 04:26:07;;;;;;;2.90;2.60;;;;;;;15.64;100.00;96917.63;110109;1245;71398;-68
2023/08/01 04:28:36;;;;;;;4.10;3.00;;;;;;;15.90;100.00;96916.38;110138;1244;69164;-68
2023/08/01 04:31:06;;;;;;;4.50;2.90;;;;;;;16.17;100.00;96912.84;110100;1245;69874;-68
2023/08/01 04:33:36;;;;;;;3.60;2.70;;;;;;;16.38;100.00;96911.60;110132;1246;59856;-68
2023/08/01 04:36:06;;;;;;;2.40;2.20;;;;;;;16.56;100.00;96906.41;110166;1245;59676;-68
2023/08/01 04:38:35;;;;;;;3.30;2.50;;;;;;;16.70;100.00;96903.10;110130;1244;71407;-68
2023/08/01 04:41:04;;;;;;;2.80;2.50;;;;;;;16.80;100.00;96899.14;110128;1245;69296;-68
2023/08/01 04:43:33;;;;;;;4.30;2.80;;;;;;;16.88;100.00;96898.83;110122;1245;69133;-66
2023/08/01 04:46:02;;;;;;;2.50;2.30;;;;;;;16.92;100.00;96897.19;110113;1245;60104;-67
2023/08/01 04:48:32;;;;;;;3.20;2.60;;;;;;;17.00;100.00;96899.33;110162;1243;59608;-67
2023/08/01 04:51:01;;;;;;;3.80;2.40;;;;;;;17.08;100.00;96901.41;110141;1244;71689;-67
2023/08/01 04:53:31;;;;;;;2.90;2.10;;;;;;;17.16;100.00;96901.28;110121;1252;69262;-67
2023/08/01 04:56:00;;;;;;;4.50;2.70;;;;;;;17.24;100.00;96901.58;110125;1245;69320;-68
2023/08/01 04:58:30;;;;;;;5.70;2.70;;;;;;;17.34;100.00;96904.93;110135;1245;59700;-67
2023/08/01 05:00:59;;;;;;;3.50;2.60;;;;;;;17.45;100.00;96901.64;110140;1245;59670;-69
2023/08/01 05:03:29;;;;;;;3.20;2.40;;;;;;;17.59;100.00;96903.77;110120;1248;71372;-68
2023/08/01 05:06:00;;;;;;;3.90;2.40;;;;;;;17.77;100.00;96907.50;110094;1246;69290;-68
2023/08/01 05:08:30;;;;;;;2.50;2.10;;;;;;;17.97;100.00;96907.50;110084;1246;69306;-67
2023/08/01 05:11:00;;;;;;;2.90;2.30;;;;;;;18.20;100.00;96902.58;110127;1246;59664;-68
2023/08/01 05:13:30;;;;;;;3.20;2.30;;;;;;;18.41;100.00;96901.46;110088;1243;60183;-68
2023/08/01 05:15:59;;;;;;;3.70;2.20;;;;;;;18.71;100.00;96908.40;110122;1245;71991;-68
2023/08/01 05:18:28;;;;;;;3.20;2.30;;;;;;;19.13;100.00;96908.79;110149;1250;69105;-70
2023/08/01 05:20:58;;;;;;;2.70;2.20;;;;;;;19.58;100.00;96902.41;110112;1245;69856;-68
2023/08/01 05:23:28;;;;;;;2.90;2.00;;;;;;;20.03;100.00;96901.66;110134;1243;59766;-68
2023/08/01 05:25:57;;;;;;;4.00;3.60;;;;;;;20.55;100.00;96901.64;110119;1243;59710;-68
2023/08/01 05:28:26;;;;;;;4.50;3.10;;;;;;;20.94;100.00;96900.13;110158;1242;71538;-68
2023/08/01 05:30:56;;;;;;;3.80;2.90;;;;;;;21.20;98.79;96896.98;110076;1244;68770;-70
2023/08/01 05:33:25;;;;;;;;;;;;;;;21.53;99.56;96897.89;110089;1245;69266;-69
2023/08/01 05:35:56;;;;;;;3.10;2.50;;;;;;;21.87;99.47;96898.15;110136;1241;59866;-69
2023/08/01 05:38:26;;;;;;;3.70;2.30;;;;;;;22.14;96.45;96901.40;110119;1245;60127;-69
2023/08/01 05:40:55;;;;;;;3.50;2.40;;;;;;;22.13;94.55;96904.13;110139;1242;70298;-69
2023/08/01 05:43:24;;;;;;;2.80;2.30;;;;;;;21.94;90.69;96907.44;110131;1241;68720;-69
2023/08/01 05:45:54;;;;;;;3.40;2.00;;;;;;;22.08;92.75;96907.36;110100;1245;69298;-69
2023/08/01 05:48:23;;;;;;;3.90;2.90;;;;;;;22.06;93.51;96910.95;110102;1241;59674;-69
2023/08/01 05:50:55;;;;;;;4.40;2.60;;;;;;;21.98;92.23;96911.56;110116;1246;59684;-67
2023/08/01 05:53:24;;;;;;;3.20;2.40;;;;;;;22.02;90.56;96905.80;110147;1246;72285;-69
2023/08/01 05:55:53;;;;;;;3.00;1.30;;;;;;;22.08;88.76;96906.17;110131;1245;69658;-68
2023/08/01 05:58:22;;;;;;;2.20;1.50;;;;;;;22.38;92.74;96906.36;110117;1251;69260;-69
2023/08/01 06:00:51;;;;;;;1.90;1.30;;;;;;;22.74;91.39;96911.86;110119;1241;59721;-70
2023/08/01 06:03:21;;;;;;;2.30;1.60;;;;;;;22.93;88.23;96911.11;110111;1242;59699;-70
2023/08/01 06:05:51;;;;;;;2.90;1.50;;;;;;;22.95;84.86;96907.06;110112;1249;71396;-68
2023/08/01 06:08:20;;;;;;;;;;;;;;;22.82;84.73;96905.79;110157;1241;68557;-69
2023/08/01 06:10:49;;;;;;;3.80;1.80;;;;;;;22.66;84.72;96901.51;110106;1242;68514;-69
2023/08/01 06:13:19;;;;;;;2.80;1.70;;;;;;;22.47;86.93;96896.48;110133;1245;59669;-69
2023/08/01 06:15:49;;;;;;;2.20;1.40;;;;;;;22.64;87.56;96901.25;110097;1241;59726;-69
2023/08/01 06:18:19;;;;;;;3.70;2.00;;;;;;;22.78;83.77;96899.20;110127;1244;71462;-69
2023/08/01 06:20:48;;;;;;;2.10;1.90;;;;;;;23.00;84.43;96900.25;110120;1245;68876;-70
2023/08/01 06:23:18;;;;;;;3.20;1.90;;;;;;;22.63;85.10;96894.81;110103;1241;68522;-70
2023/08/01 06:25:47;;;;;;;2.80;1.80;;;;;;;22.52;84.64;96895.75;110122;1246;59716;-70
2023/08/01 06:28:16;;;;;;;1.70;1.50;;;;;;;22.33;86.55;96892.36;110160;1251;59689;-70
2023/08/01 06:30:46;;;;;;;2.70;1.70;;;;;;;21.92;88.58;96891.38;110085;1246;72090;-69
2023/08/01 06:33:15;;;;;;;;;;;;;;;21.91;88.47;96893.83;110091;1243;69116;-70
2023/08/01 06:35:44;;;;;;;2.50;1.90;;;;;;;21.90;89.81;96894.40;110138;1251;69944;-70
2023/08/01 06:38:13;;;;;;;2.70;1.60;;;;;;;21.72;90.04;96896.04;110126;1243;60156;-70
2023/08/01 06:40:42;;;;;;;2.70;2.20;;;;;;;21.63;91.30;96896.17;110165;1245;59686;-69
2023/08/01 06:43:11;;;;;;;2.80;1.90;;;;;;;21.57;91.54;96894.45;110085;1246;70619;-70
2023/08/01 06:45:43;;;;;;;2.80;2.00;;;;;;;21.38;93.15;96898.71;110117;1241;69413;-69
2023/08/01 06:48:12;;;;;;;3.10;2.00;;;;;;;21.23;94.60;96897.91;110084;1251;69293;-68
2023/08/01 06:50:41;;;;;;;3.00;2.00;;;;;;;21.24;94.54;96897.05;110061;1245;59692;-69
2023/08/01 06:53:11;;;;;;;2.60;2.30;;;;;;;21.29;95.59;96898.73;110099;1245;59754;-68
2023/08/01 06:55:40;;;;;;;3.10;2.20;;;;;;;21.32;95.09;96897.30;110132;1243;71211;-69
2023/08/01 06:58:09;;;;;;;3.20;2.20;;;;;;;21.09;95.80;96895.87;110094;1241;69309;-69
2023/08/01 07:00:38;;;;;;;3.40;2.50;;;;;;;21.16;97.80;96900.77;110069;1245;69881;-69
2023/08/01 07:03:08;;;;;;;3.40;2.40;;;;;;;21.32;96.30;96904.19;110115;1246;60131;-69
2023/08/01 07:05:38;;;;;;;3.10;2.40;;;;;;;21.06;97.33;96903.68;110124;1242;59760;-68
2023/08/01 07:08:08;;;;;;;2.50;2.30;;;;;;;21.12;98.01;96902.80;110096;1244;71372;-68
2023/08/01 07:10:37;;;;;;;2.90;2.60;;;;;;;21.10;98.14;96904.69;110077;1241;69242;-68
2023/08/01 07:13:07;;;;;;;3.10;2.50;;;;;;;21.23;97.65;96903.92;110060;1241;69143;-68
2023/08/01 07:15:36;;;;;;;3.00;2.70;;;;;;;21.23;98.12;96903.71;110107;1245;60215;-69
2023/08/01 07:18:06;;;;;;;3.10;2.70;;;;;;;21.25;97.66;96898.20;110131;1245;59702;-69
2023/08/01 07:20:35;;;;;;;;;;;;;;;20.99;98.62;96894.85;110080;1244;69670;-69
2023/08/01 07:23:04;;;;;;;;;;;;;;;20.84;99.67;96897.04;110118;1241;69121;-69
2023/08/01 07:25:34;;;;;;;3.00;2.30;;;;;;;20.89;100.00;96895.52;110161;1246;69872;-69
2023/08/01 07:28:03;;;;;;;2.80;2.30;;;;;;;21.04;100.00;96898.88;110094;1244;59770;-69
2023/08/01 07:30:32;;;;;;;3.00;2.40;;;;;;;21.48;98.83;96898.91;110136;1245;59667;-69
2023/08/01 07:33:02;;;;;;;4.00;2.60;;;;;;;21.82;95.26;96898.68;110123;1246;71966;-69
2023/08/01 07:35:31;;;;;;;3.30;2.00;;;;;;;22.20;93.61;96895.00;110153;1245;69775;-69
2023/08/01 07:38:00;;;;;;;3.10;2.30;;;;;;;22.76;89.99;96899.70;110129;1244;69886;-71
2023/08/01 07:40:30;;;;;;;3.30;2.50;;;;;;;23.29;88.34;96899.86;110122;1244;59782;-71
2023/08/01 07:42:59;;;;;;;2.40;2.10;;;;;;;23.83;85.22;96902.79;110078;1241;60095;-71
2023/08/01 07:45:28;;;;;;;2.50;1.90;;;;;;;24.27;81.21;96900.27;110090;1245;72103;-71
2023/08/01 07:47:57;;;;;;;3.00;2.00;;;;;;;23.95;79.66;96905.59;110262;1241;69640;-71
2023/08/01 07:50:26;;;;;;;;;;;;;;;23.95;79.99;96899.40;110240;1241;70051;-70
2023/08/01 07:52:55;;;;;;;2.40;1.80;;;;;;;24.40;78.90;96898.65;110083;1245;59744;-71
2023/08/01 07:55:25;;;;;;;2.30;2.10;;;;;;;24.68;76.89;96897.02;110108;1244;59670;-72
2023/08/01 07:57:53;;;;;;;;;;;;;;;24.87;75.63;96900.20;110133;1246;71498;-71
2023/08/01 08:00:23;;;;;;;3.00;1.90;;;;;;;24.95;75.15;96904.73;110104;1241;68245;-70
2023/08/01 08:02:54;;;;;;;2.20;1.80;;;;;;;25.15;73.67;96901.30;110115;1241;70031;-68
2023/08/01 08:05:23;;;;;;;2.10;1.90;;;;;;;25.57;72.62;96898.10;110113;1245;59744;-70
2023/08/01 08:07:52;;;;;;;;;;;;;;;25.91;69.96;96892.02;110073;1246;59723;-69
2023/08/01 08:10:22;;;;;;;2.20;2.00;;;;;;;25.94;68.99;96889.73;110118;1246;71330;-68
2023/08/01 08:12:51;;;;;;;3.10;2.40;;;;;;;26.20;68.48;96889.49;110105;1246;68569;-69
2023/08/01 08:15:21;;;;;;;;;;;;;;;26.47;66.34;96885.20;110165;1246;69290;-69
2023/08/01 08:17:50;;;;;;;2.70;2.00;;;;;;;26.37;65.44;96881.05;110123;1241;59756;-69
2023/08/01 08:20:19;;;;;;;3.70;2.60;;;;;;;26.06;66.84;96883.67;110099;1245;59637;-69
2023/08/01 08:22:48;;;;;;;3.90;2.80;;;;;;;26.31;66.35;96882.36;110160;1245;72315;-69
2023/08/01 08:25:17;;;;;;;3.10;2.70;;;;;;;26.63;65.31;96880.71;110129;1243;69566;-69
2023/08/01 08:27:48;;;;;;;;;;;;;;;27.03;64.41;96881.55;110137;1245;69741;-70
2023/08/01 08:30:17;;;;;;;2.50;1.90;;;;;;;27.43;62.26;96878.55;110147;1245;59692;-69
2023/08/01 08:32:47;;;;;;;2.30;1.90;;;;;;;27.69;61.48;96878.27;110180;1241;59672;-70
2023/08/01 08:35:16;;;;;;;2.50;2.00;;;;;;;27.91;60.36;96873.27;110188;1241;71380;-69
2023/08/01 08:37:45;;;;;;;;;;;;;;;28.31;61.10;96861.70;110081;1246;69221;-69
2023/08/01 08:40:14;;;;;;;3.10;2.20;;;;;;;28.42;58.57;96859.74;110146;1241;67756;-69
2023/08/01 08:42:44;;;;;;;;;;;;;;;28.44;58.12;96855.27;110131;1244;59715;-69
2023/08/01 08:45:18;;;;;;;2.30;2.10;;;;;;;28.71;57.49;96854.70;110142;1242;59760;-69
2023/08/01 09:23:17;;;;;;;3.10;1.70;;;;;;;30.12;50.81;96823.90;107394;1270;608997;-68
2023/08/01 09:25:46;;;;;;;2.70;2.10;;;;;;;30.60;49.18;96815.06;108983;1251;345302;-69
2023/08/01 09:28:21;;;;;;;2.30;1.80;;;;;;;30.79;46.92;96816.95;109354;1251;58050;-69
2023/08/01 09:30:57;;;;;;;3.20;2.00;;;;;;;30.74;46.22;96812.66;110431;1242;69379;-69
2023/08/01 09:33:39;;;;;;;2.80;1.90;;;;;;;30.99;45.59;96814.92;110323;1240;69082;-67
2023/08/01 09:36:11;;;;;;;2.90;1.60;;;;;;;30.97;44.94;96807.76;110395;1241;69139;-68
2023/08/01 09:38:40;;;;;;;2.40;2.00;;;;;;;31.19;45.59;96808.39;110395;1240;57652;-68
2023/08/01 09:41:20;;;;;;;2.70;2.20;;;;;;;31.57;44.07;96802.92;110384;1241;57715;-69
2023/08/01 09:43:50;;;;;;;2.70;2.10;;;;;;;31.51;43.36;96798.79;110478;1241;68941;-69
2023/08/01 09:46:19;;;;;;;3.40;2.10;;;;;;;31.51;42.68;96800.03;110438;1242;69182;-69
2023/08/01 09:48:50;;;;;;;2.50;1.80;;;;;;;31.64;43.13;96795.15;110402;1242;69927;-68
2023/08/01 09:51:19;;;;;;;2.20;1.70;;;;;;;32.00;42.15;96788.28;110347;1241;58105;-69
2023/08/01 09:53:50;;;;;;;2.40;1.60;;;;;;;32.39;41.28;96779.85;110408;1240;58117;-67
2023/08/01 09:56:25;;;;;;;2.00;1.80;;;;;;;32.39;41.51;96776.23;110428;1240;69755;-69
2023/08/01 09:58:55;;;;;;;2.00;1.80;;;;;;;32.86;40.47;96774.66;110286;1241;70285;-69
2023/08/01 10:01:26;;;;;;;2.60;1.70;;;;;;;32.88;38.88;96772.66;110288;1241;68494;-69
2023/08/01 10:03:56;;;;;;;2.00;1.50;;;;;;;32.87;39.68;96769.73;110215;1241;58090;-69
2023/08/01 10:06:31;;;;;;;2.00;1.30;;;;;;;32.95;40.18;96764.39;110440;1239;58106;-68
2023/08/01 10:09:01;;;;;;;1.90;1.60;;;;;;;33.01;39.47;96760.27;110340;1241;69829;-69
2023/08/01 10:11:34;;;;;;;2.00;1.70;;;;;;;33.37;39.40;96755.35;110351;1241;68733;-70
2023/08/01 10:14:05;;;;;;;2.90;1.80;;;;;;;33.33;37.84;96752.48;110207;1241;69769;-69
2023/08/01 10:16:36;;;;;;;2.40;1.90;;;;;;;32.95;39.34;96745.89;110292;1241;58088;-69
2023/08/01 10:19:07;;;;;;;2.10;1.70;;;;;;;32.63;38.74;96751.13;110287;1241;58372;-69
2023/08/01 10:21:36;;;;;;;2.60;2.10;;;;;;;32.66;39.39;96752.50;110343;1240;70789;-68
2023/08/01 10:24:07;;;;;;;2.70;2.20;;;;;;;31.76;40.48;96748.64;110310;1241;68587;-68
2023/08/01 10:26:36;;;;;;;2.30;1.70;;;;;;;31.45;41.60;96745.48;110204;1245;68510;-69
2023/08/01 10:29:06;;;;;;;2.30;1.80;;;;;;;32.06;40.55;96736.42;110276;1241;58885;-69
2023/08/01 10:31:35;;;;;;;2.80;1.80;;;;;;;32.30;39.35;96733.04;110324;1241;58030;-69
2023/08/01 10:34:06;;;;;;;3.30;1.90;;;;;;;32.58;39.31;96728.07;110293;1247;69814;-69
2023/08/01 10:36:36;;;;;;;2.80;1.90;;;;;;;32.78;38.95;96725.61;110319;1242;69709;-68
2023/08/01 10:39:05;;;;;;;2.00;1.60;;;;;;;32.59;38.69;96730.53;110358;1241;69296;-70
2023/08/01 10:41:36;;;;;;;2.40;2.00;;;;;;;32.38;38.42;96725.11;110225;1241;58162;-69
2023/08/01 10:44:12;;;;;;;2.10;1.80;;;;;;;32.06;39.66;96721.71;110400;1241;58065;-68
2023/08/01 10:46:48;;;;;;;2.60;1.90;;;;;;;31.42;40.27;96721.37;110303;1241;69864;-67
2023/08/01 10:49:18;;;;;;;2.40;1.80;;;;;;;30.57;42.19;96723.01;110291;1242;69251;-70
2023/08/01 10:51:47;;;;;;;1.90;1.60;;;;;;;30.35;42.96;96718.95;110372;1240;69377;-70
2023/08/01 10:54:23;;;;;;;2.20;1.80;;;;;;;30.55;43.21;96715.92;110237;1244;58099;-69
2023/08/01 10:56:55;;;;;;;1.90;1.60;;;;;;;30.82;42.85;96715.69;110375;1241;58066;-69
2023/08/01 10:59:24;;;;;;;2.60;1.80;;;;;;;31.43;42.01;96706.96;110362;1241;69310;-69
2023/08/01 11:01:57;;;;;;;3.50;1.80;;;;;;;31.83;41.32;96698.64;110321;1240;69091;-69
2023/08/01 11:04:27;;;;;;;2.80;2.00;;;;;;;32.04;40.70;96700.84;110408;1241;70264;-69
2023/08/01 11:06:56;;;;;;;2.50;1.60;;;;;;;32.18;40.17;96699.09;110251;1241;58116;-69
2023/08/01 11:09:27;;;;;;;4.10;2.00;;;;;;;32.15;40.32;96696.17;110331;1241;58069;-69
2023/08/01 11:12:00;;;;;;;2.20;1.80;;;;;;;32.09;40.90;96698.36;110416;1241;69791;-71
2023/08/01 11:14:29;;;;;;;2.00;1.70;;;;;;;32.32;40.39;96699.84;110328;1241;69850;-69
2023/08/01 11:17:00;;;;;;;2.00;1.50;;;;;;;32.29;39.79;96697.95;110202;1241;69108;-70
2023/08/01 11:19:31;;;;;;;2.10;1.70;;;;;;;32.54;39.97;96690.15;110353;1240;58485;-71
2023/08/01 11:22:10;;;;;;;2.80;1.60;;;;;;;32.77;39.20;96690.22;110396;1241;58020;-70
2023/08/01 11:24:39;;;;;;;2.30;1.90;;;;;;;32.94;37.93;96686.34;110396;1241;69035;-68
2023/08/01 11:27:10;;;;;;;1.90;1.40;;;;;;;32.45;38.75;96684.30;110332;1241;68371;-68
2023/08/01 11:29:40;;;;;;;2.30;1.60;;;;;;;31.99;38.93;96680.66;110348;1241;69858;-69
2023/08/01 11:32:09;;;;;;;2.10;1.90;;;;;;;32.45;38.84;96681.04;110462;1241;58150;-66
2023/08/01 11:34:46;;;;;;;2.10;1.70;;;;;;;31.73;38.54;96677.23;110442;1241;58073;-69
2023/08/01 11:37:19;;;;;;;2.10;1.70;;;;;;;31.09;37.86;96670.67;110284;1240;70642;-69
2023/08/01 11:39:48;;;;;;;2.00;1.50;;;;;;;30.55;38.71;96667.27;110278;1241;69674;-69
2023/08/01 11:42:20;;;;;;;1.80;1.60;;;;;;;30.27;39.29;96664.20;110203;1241;69309;-69
2023/08/01 11:44:49;;;;;;;2.40;1.80;;;;;;;30.54;39.28;96661.16;110299;1241;58128;-70
2023/08/01 11:47:19;;;;;;;2.00;1.30;;;;;;;31.10;39.58;96652.39;110382;1241;58215;-70
2023/08/01 11:49:49;;;;;;;1.90;1.60;;;;;;;31.24;39.45;96649.94;110133;1241;69764;-69
2023/08/01 11:52:28;;;;;;;2.50;1.40;;;;;;;31.92;39.73;96648.52;110345;1241;69716;-71
2023/08/01 11:54:57;;;;;;;1.90;1.60;;;;;;;32.47;38.51;96643.56;110276;1241;69102;-70
2023/08/01 11:57:26;;;;;;;2.10;1.60;;;;;;;32.77;36.41;96645.46;110287;1241;58116;-69
2023/08/01 11:59:56;;;;;;;1.90;1.70;;;;;;;32.69;35.03;96639.36;110427;1242;58027;-69
2023/08/01 12:02:32;;;;;;;1.80;1.50;;;;;;;31.98;35.75;96638.59;110299;1242;69747;-70
2023/08/01 12:05:02;;;;;;;1.80;1.50;;;;;;;31.61;37.56;96638.52;110377;1241;69601;-69
2023/08/01 12:07:31;;;;;;;2.00;1.50;;;;;;;30.98;38.27;96631.50;110396;1249;69165;-70
2023/08/01 12:10:01;;;;;;;1.80;1.50;;;;;;;29.98;39.89;96633.45;110507;1241;58150;-70
2023/08/01 12:12:30;;;;;;;2.40;1.90;;;;;;;30.35;40.72;96629.71;110399;1242;58140;-70
2023/08/01 12:14:59;;;;;;;2.60;1.70;;;;;;;30.47;41.47;96619.79;110210;1241;69629;-67
2023/08/01 12:17:27;;;;;;;;;;;;;;;31.01;40.68;96616.60;110378;1241;69221;-70